Time;durP1;ratioP1;P1;durP2;ratioP2;P2;SDS_P1;SDS_P2;PMS_P1;PMS_P2;Temp;Humidity;BMP_temperature;BMP_pressure;BME280_temperature;BME280_humidity;BME280_pressure;Samples;Min_cycle;Max_cycle;Signal;HPM_P1;HPM_P2
2022/12/10 00:01:07;;;;;;;;;;;4.50;95.30;;;;;;5072244;28;19912;-72
2022/12/10 00:03:33;;;;;;;;;;;4.50;95.40;;;;;;5089470;28;19919;-72
2022/12/10 00:06:03;;;;;;;;;;;4.50;95.40;;;;;;5088057;28;20443;-72
2022/12/10 00:08:28;;;;;;;;;;;4.50;95.30;;;;;;5069860;28;20011;-72
2022/12/10 00:10:54;;;;;;;;;;;4.40;95.40;;;;;;5068536;28;20452;-72
2022/12/10 00:13:19;;;;;;;;;;;4.40;95.40;;;;;;5086964;28;19920;-71
2022/12/10 00:15:45;;;;;;;;;;;4.40;95.50;;;;;;5087561;28;20002;-72
2022/12/10 00:18:10;;;;;;;;;;;4.40;95.40;;;;;;5087592;28;19916;-71
2022/12/10 00:20:36;;;;;;;;;;;4.40;95.50;;;;;;5092625;28;19965;-72
2022/12/10 00:23:02;;;;;;;;;;;4.40;95.50;;;;;;5087941;28;19944;-71
2022/12/10 00:25:28;;;;;;;;;;;4.40;95.40;;;;;;5087942;28;19993;-71
2022/12/10 00:27:53;;;;;;;;;;;4.30;95.40;;;;;;5088300;28;19912;-72
2022/12/10 00:30:18;;;;;;;;;;;4.30;95.40;;;;;;5087546;28;19974;-71
2022/12/10 00:32:44;;;;;;;;;;;4.30;95.60;;;;;;5088105;28;19918;-71
2022/12/10 00:35:09;;;;;;;;;;;4.30;95.50;;;;;;5087685;28;19935;-71
2022/12/10 00:37:35;;;;;;;;;;;4.20;95.70;;;;;;5100839;28;19920;-71
2022/12/10 00:40:00;;;;;;;;;;;4.30;95.50;;;;;;5089588;28;19912;-71
2022/12/10 00:42:26;;;;;;;;;;;4.20;95.60;;;;;;5108047;28;19911;-71
2022/12/10 00:44:51;;;;;;;;;;;4.30;95.60;;;;;;5076103;28;19913;-71
2022/12/10 00:47:17;;;;;;;;;;;4.20;95.50;;;;;;5068544;28;20008;-71
2022/12/10 00:49:42;;;;;;;;;;;4.20;95.40;;;;;;5087438;28;19912;-71
2022/12/10 00:52:08;;;;;;;;;;;4.20;95.50;;;;;;5087601;28;19912;-71
2022/12/10 00:54:33;;;;;;;;;;;4.20;95.60;;;;;;5087172;28;19916;-71
2022/12/10 00:56:59;;;;;;;;;;;4.20;95.70;;;;;;5049031;28;19916;-71
2022/12/10 00:59:24;;;;;;;;;;;4.10;95.60;;;;;;5067113;28;19912;-71
2022/12/10 01:01:50;;;;;;;;;;;4.10;95.60;;;;;;5075364;28;19939;-71
2022/12/10 01:04:17;;;;;;;;;;;4.10;95.70;;;;;;5085286;28;19908;-71
2022/12/10 01:06:44;;;;;;;;;;;4.10;95.70;;;;;;5087396;28;20672;-71
2022/12/10 01:09:10;;;;;;;;;;;4.10;95.70;;;;;;5087571;28;20002;-71
2022/12/10 01:11:38;;;;;;;;;;;4.10;95.60;;;;;;5104561;28;19919;-71
2022/12/10 01:14:05;;;;;;;;;;;4.10;95.70;;;;;;5088756;28;19924;-71
2022/12/10 01:16:30;;;;;;;;;;;4.00;95.70;;;;;;5066963;28;20341;-71
2022/12/10 01:18:57;;;;;;;;;;;4.10;95.80;;;;;;5067189;28;19908;-71
2022/12/10 01:21:23;;;;;;;;;;;4.10;95.70;;;;;;5075945;28;20683;-71
2022/12/10 01:23:49;;;;;;;;;;;4.10;95.70;;;;;;5087288;28;19934;-71
2022/12/10 01:26:19;;;;;;;;;;;4.00;95.70;;;;;;5090753;28;19919;-71
2022/12/10 01:28:45;;;;;;;;;;;4.00;95.80;;;;;;5106464;28;20018;-71
2022/12/10 01:31:15;;;;;;;;;;;4.00;95.80;;;;;;5100331;28;19916;-71
2022/12/10 01:33:40;;;;;;;;;;;4.00;95.70;;;;;;5087406;28;20409;-71
2022/12/10 01:36:16;;;;;;;;;;;4.00;95.80;;;;;;5086670;28;19987;-71
2022/12/10 01:38:42;;;;;;;;;;;4.00;95.80;;;;;;5087093;28;19944;-71
2022/12/10 01:41:12;;;;;;;;;;;4.00;95.80;;;;;;5086623;28;19962;-71
2022/12/10 01:43:56;;;;;;;;;;;4.00;95.80;;;;;;5087554;28;19913;-71
2022/12/10 01:46:23;;;;;;;;;;;4.00;95.80;;;;;;5066590;28;19912;-71
2022/12/10 01:48:49;;;;;;;;;;;3.90;95.90;;;;;;5066853;28;20446;-71
2022/12/10 01:51:14;;;;;;;;;;;3.90;95.80;;;;;;5065972;28;19917;-71
2022/12/10 01:53:40;;;;;;;;;;;3.90;95.80;;;;;;5066689;28;19912;-71
2022/12/10 01:56:06;;;;;;;;;;;3.90;95.90;;;;;;5067912;28;19908;-71
2022/12/10 01:58:31;;;;;;;;;;;3.90;95.90;;;;;;5070888;28;19909;-71
2022/12/10 02:01:05;;;;;;;;;;;3.90;95.90;;;;;;5106080;28;19912;-71
2022/12/10 02:03:36;;;;;;;;;;;3.90;95.90;;;;;;5070773;28;19920;-71
2022/12/10 02:06:06;;;;;;;;;;;3.90;95.90;;;;;;5070652;28;20353;-71
2022/12/10 02:08:40;;;;;;;;;;;3.90;95.90;;;;;;5070071;28;19915;-71
2022/12/10 02:11:06;;;;;;;;;;;3.90;95.90;;;;;;5070490;28;19909;-71
2022/12/10 02:13:31;;;;;;;;;;;3.90;96.00;;;;;;5075353;28;20408;-71
2022/12/10 02:16:05;;;;;;;;;;;3.90;96.00;;;;;;5099707;28;19915;-71
2022/12/10 02:18:34;;;;;;;;;;;3.90;96.00;;;;;;5110880;28;20008;-71
2022/12/10 02:21:06;;;;;;;;;;;3.90;96.00;;;;;;5089186;28;19918;-71
2022/12/10 02:23:43;;;;;;;;;;;3.90;96.10;;;;;;5072188;28;19942;-71
2022/12/10 02:26:15;;;;;;;;;;;3.80;96.10;;;;;;5089252;28;19999;-73
2022/12/10 02:28:49;;;;;;;;;;;3.80;96.10;;;;;;5090431;28;19912;-73
2022/12/10 02:31:17;;;;;;;;;;;3.80;96.10;;;;;;5091887;28;20614;-74
2022/12/10 02:33:46;;;;;;;;;;;3.80;96.10;;;;;;5092859;28;20269;-73
2022/12/10 02:36:13;;;;;;;;;;;3.80;96.10;;;;;;5090259;28;19973;-73
2022/12/10 02:38:39;;;;;;;;;;;3.90;96.40;;;;;;5090311;28;20430;-73
2022/12/10 02:41:07;;;;;;;;;;;3.80;96.10;;;;;;5071395;28;19912;-73
2022/12/10 02:43:34;;;;;;;;;;;3.80;96.20;;;;;;5089639;28;19919;-73
2022/12/10 02:46:01;;;;;;;;;;;3.80;96.20;;;;;;5089705;28;19912;-74
2022/12/10 02:48:27;;;;;;;;;;;3.80;96.10;;;;;;5091158;28;19922;-73
2022/12/10 02:50:52;;;;;;;;;;;3.80;96.20;;;;;;5089435;28;19908;-74
2022/12/10 02:53:18;;;;;;;;;;;3.80;96.20;;;;;;5089414;28;20026;-74
2022/12/10 02:56:02;;;;;;;;;;;3.80;96.20;;;;;;5071673;28;19920;-74
2022/12/10 02:58:54;;;;;;;;;;;3.80;96.20;;;;;;5068935;28;19916;-73
2022/12/10 03:01:24;;;;;;;;;;;3.80;96.20;;;;;;5075627;28;19915;-74
2022/12/10 03:03:54;;;;;;;;;;;3.80;96.20;;;;;;5109329;28;20004;-74
2022/12/10 03:06:27;;;;;;;;;;;3.80;96.40;;;;;;5090780;28;19919;-73
2022/12/10 03:08:59;;;;;;;;;;;3.80;96.20;;;;;;5108792;28;19954;-73
2022/12/10 03:11:24;;;;;;;;;;;3.80;96.20;;;;;;5108840;28;19916;-73
2022/12/10 03:13:59;;;;;;;;;;;3.80;96.20;;;;;;5102697;28;19927;-73
2022/12/10 03:16:26;;;;;;;;;;;3.80;96.20;;;;;;5089586;28;20376;-73
2022/12/10 03:18:54;;;;;;;;;;;3.80;96.20;;;;;;5105248;28;19922;-73
2022/12/10 03:21:20;;;;;;;;;;;3.80;96.20;;;;;;5085517;28;19972;-73
2022/12/10 03:23:47;;;;;;;;;;;3.80;96.20;;;;;;5089454;28;20296;-73
2022/12/10 03:26:13;;;;;;;;;;;3.80;96.20;;;;;;5089460;28;19908;-73
2022/12/10 03:28:41;;;;;;;;;;;3.80;96.20;;;;;;5086078;28;20300;-73
2022/12/10 03:31:09;;;;;;;;;;;3.80;96.20;;;;;;5058305;28;19968;-73
2022/12/10 03:33:34;;;;;;;;;;;3.70;96.40;;;;;;5089709;28;19939;-73
2022/12/10 03:36:00;;;;;;;;;;;3.80;96.20;;;;;;5087430;28;19992;-73
2022/12/10 03:38:25;;;;;;;;;;;3.80;96.20;;;;;;5068819;28;19919;-73
2022/12/10 03:40:51;;;;;;;;;;;3.80;96.20;;;;;;5068813;28;19932;-73
2022/12/10 03:43:16;;;;;;;;;;;3.80;96.20;;;;;;5068768;28;19999;-73
2022/12/10 03:45:42;;;;;;;;;;;3.80;96.20;;;;;;5068778;28;19912;-73
2022/12/10 03:48:07;;;;;;;;;;;3.80;96.20;;;;;;5068698;28;19919;-73
2022/12/10 03:50:33;;;;;;;;;;;3.70;96.20;;;;;;5072889;28;20023;-73
2022/12/10 03:52:58;;;;;;;;;;;3.80;96.20;;;;;;5088938;28;20654;-73
2022/12/10 03:55:24;;;;;;;;;;;3.80;96.20;;;;;;5088117;28;19975;-73
2022/12/10 03:57:49;;;;;;;;;;;3.80;96.20;;;;;;5089045;28;19957;-73
2022/12/10 04:00:15;;;;;;;;;;;3.80;96.10;;;;;;5088247;28;19915;-73
2022/12/10 04:02:40;;;;;;;;;;;3.80;96.10;;;;;;5102515;28;19960;-73
2022/12/10 04:05:06;;;;;;;;;;;3.80;96.10;;;;;;5109288;28;19953;-73
2022/12/10 04:07:32;;;;;;;;;;;3.70;96.10;;;;;;5108508;28;20020;-73
2022/12/10 04:09:57;;;;;;;;;;;3.70;96.10;;;;;;5108725;28;19907;-73
2022/12/10 04:12:23;;;;;;;;;;;3.70;96.10;;;;;;5108663;28;20486;-73
2022/12/10 04:17:33;;;;;;;;;;;3.70;96.10;;;;;;5068071;28;19919;-73
2022/12/10 04:19:59;;;;;;;;;;;3.70;96.10;;;;;;5067841;28;19964;-73
2022/12/10 04:27:55;;;;;;;;;;;3.70;96.10;;;;;;5082202;28;19992;-73
2022/12/10 04:30:21;;;;;;;;;;;3.70;96.10;;;;;;5087446;28;19950;-73
2022/12/10 04:32:46;;;;;;;;;;;3.70;96.00;;;;;;5101970;28;19960;-74
2022/12/10 04:35:12;;;;;;;;;;;3.70;96.10;;;;;;5108420;28;20004;-73
2022/12/10 04:37:37;;;;;;;;;;;3.70;96.00;;;;;;5090881;28;19912;-73
2022/12/10 04:40:03;;;;;;;;;;;3.70;96.00;;;;;;5088978;28;19920;-73
2022/12/10 04:42:29;;;;;;;;;;;3.70;96.00;;;;;;5090468;28;19951;-73
2022/12/10 04:44:54;;;;;;;;;;;3.70;96.00;;;;;;5087851;28;20567;-73
2022/12/10 04:47:20;;;;;;;;;;;3.70;96.00;;;;;;5087704;28;19911;-73
2022/12/10 04:49:45;;;;;;;;;;;3.70;96.00;;;;;;5086923;28;19996;-73
2022/12/10 04:52:12;;;;;;;;;;;3.70;96.00;;;;;;5087805;28;19969;-73
2022/12/10 04:54:38;;;;;;;;;;;3.70;96.00;;;;;;5087548;28;20326;-73
2022/12/10 04:57:04;;;;;;;;;;;3.70;96.00;;;;;;5095919;28;19927;-73
2022/12/10 04:59:29;;;;;;;;;;;3.70;96.00;;;;;;5095761;28;19916;-73
2022/12/10 05:01:55;;;;;;;;;;;3.70;96.00;;;;;;5102327;28;20387;-73
2022/12/10 05:04:20;;;;;;;;;;;3.70;96.00;;;;;;5107984;28;19911;-73
2022/12/10 05:06:48;;;;;;;;;;;3.70;96.00;;;;;;5107254;28;20605;-73
2022/12/10 05:09:13;;;;;;;;;;;3.70;95.90;;;;;;5107644;28;20546;-73
2022/12/10 05:11:39;;;;;;;;;;;3.70;95.90;;;;;;5107381;28;19918;-72
2022/12/10 05:14:05;;;;;;;;;;;3.70;96.00;;;;;;5101447;28;19927;-71
2022/12/10 05:16:32;;;;;;;;;;;3.70;95.90;;;;;;5107430;28;19915;-71
2022/12/10 05:18:57;;;;;;;;;;;3.70;95.90;;;;;;5107644;28;19911;-71
2022/12/10 05:21:24;;;;;;;;;;;3.70;95.90;;;;;;5107318;28;19918;-71
2022/12/10 05:23:51;;;;;;;;;;;3.70;95.90;;;;;;5105812;28;20156;-71
2022/12/10 05:26:20;;;;;;;;;;;3.60;95.90;;;;;;5087109;28;19913;-71
2022/12/10 05:28:53;;;;;;;;;;;3.70;95.90;;;;;;5086954;28;20031;-71
2022/12/10 05:31:26;;;;;;;;;;;3.60;95.90;;;;;;5089050;28;19916;-71
2022/12/10 05:33:52;;;;;;;;;;;3.60;95.80;;;;;;5094606;28;19916;-71
2022/12/10 05:36:21;;;;;;;;;;;3.60;95.90;;;;;;5068582;28;19920;-71
2022/12/10 05:38:46;;;;;;;;;;;3.60;95.90;;;;;;5087056;28;19908;-71
2022/12/10 05:41:16;;;;;;;;;;;3.60;95.80;;;;;;5086607;28;19919;-71
2022/12/10 05:43:42;;;;;;;;;;;3.60;95.90;;;;;;5086193;28;20254;-71
2022/12/10 05:46:12;;;;;;;;;;;3.60;95.80;;;;;;5086814;28;19912;-71
2022/12/10 05:48:38;;;;;;;;;;;3.60;95.80;;;;;;5099598;28;19911;-71
2022/12/10 05:51:07;;;;;;;;;;;3.60;95.80;;;;;;5106489;28;19919;-72
2022/12/10 05:53:33;;;;;;;;;;;3.60;95.80;;;;;;5095108;28;19913;-71
2022/12/10 05:55:59;;;;;;;;;;;3.60;95.80;;;;;;5086678;28;19919;-71
2022/12/10 05:58:26;;;;;;;;;;;3.60;95.80;;;;;;5068356;28;19912;-71
2022/12/10 06:00:52;;;;;;;;;;;3.50;95.80;;;;;;5085656;28;19916;-71
2022/12/10 06:03:17;;;;;;;;;;;3.50;95.80;;;;;;5104977;28;19912;-71
2022/12/10 06:05:43;;;;;;;;;;;3.50;95.80;;;;;;5105314;28;19915;-71
2022/12/10 06:08:08;;;;;;;;;;;3.50;95.70;;;;;;5105947;28;20273;-71
2022/12/10 06:10:34;;;;;;;;;;;3.50;95.70;;;;;;5106829;28;19922;-71
2022/12/10 06:13:00;;;;;;;;;;;3.50;95.70;;;;;;5106300;28;19958;-71
2022/12/10 06:15:25;;;;;;;;;;;3.40;95.70;;;;;;5071609;28;19959;-71
2022/12/10 06:17:51;;;;;;;;;;;3.40;95.70;;;;;;5079665;28;20417;-71
2022/12/10 06:20:16;;;;;;;;;;;3.40;95.60;;;;;;5085654;28;19916;-71
2022/12/10 06:22:42;;;;;;;;;;;3.40;95.60;;;;;;5084834;28;19916;-71
2022/12/10 06:25:08;;;;;;;;;;;3.30;95.60;;;;;;5083751;28;20757;-72
2022/12/10 06:27:33;;;;;;;;;;;3.30;95.60;;;;;;5085451;28;19920;-71
2022/12/10 06:29:58;;;;;;;;;;;3.30;95.60;;;;;;5085995;28;19916;-71
2022/12/10 06:32:24;;;;;;;;;;;3.30;95.60;;;;;;5086360;28;19916;-72
2022/12/10 06:34:50;;;;;;;;;;;3.20;95.60;;;;;;5070879;28;19951;-72
2022/12/10 06:37:15;;;;;;;;;;;3.20;95.60;;;;;;5085959;28;20011;-71
2022/12/10 06:39:40;;;;;;;;;;;3.20;95.60;;;;;;5085567;28;20492;-72
2022/12/10 06:42:06;;;;;;;;;;;3.20;95.60;;;;;;5088369;28;19912;-71
2022/12/10 06:44:31;;;;;;;;;;;3.20;95.50;;;;;;5089441;28;19915;-72
2022/12/10 06:46:57;;;;;;;;;;;3.10;95.50;;;;;;5089238;28;19917;-71
2022/12/10 06:49:22;;;;;;;;;;;3.10;95.50;;;;;;5088820;28;19919;-72
2022/12/10 06:51:48;;;;;;;;;;;3.10;95.50;;;;;;5089332;28;20387;-72
2022/12/10 06:54:14;;;;;;;;;;;3.10;95.50;;;;;;5089060;28;19920;-72
2022/12/10 06:56:39;;;;;;;;;;;3.10;95.50;;;;;;5099133;28;20007;-71
2022/12/10 06:59:06;;;;;;;;;;;3.00;95.50;;;;;;5109687;28;19915;-72
2022/12/10 07:01:31;;;;;;;;;;;3.00;95.40;;;;;;5085169;28;20541;-71
2022/12/10 07:03:57;;;;;;;;;;;3.00;95.40;;;;;;5109259;28;19916;-71
2022/12/10 07:06:23;;;;;;;;;;;3.00;95.40;;;;;;5109420;28;19930;-72
2022/12/10 07:08:49;;;;;;;;;;;2.90;95.40;;;;;;5108730;28;19916;-71
2022/12/10 07:11:16;;;;;;;;;;;2.90;95.40;;;;;;5108816;28;19916;-71
2022/12/10 07:13:41;;;;;;;;;;;2.90;95.40;;;;;;5100391;28;19916;-72
2022/12/10 07:16:14;;;;;;;;;;;2.90;95.40;;;;;;5088505;28;19922;-72
2022/12/10 07:18:39;;;;;;;;;;;2.90;95.40;;;;;;5088931;28;19912;-72
2022/12/10 07:21:37;;;;;;;;;;;2.90;95.40;;;;;;5089111;28;19964;-71
2022/12/10 07:24:04;;;;;;;;;;;2.90;95.40;;;;;;5054820;28;20007;-72
2022/12/10 07:26:31;;;;;;;;;;;2.80;95.30;;;;;;5086990;28;20416;-72
2022/12/10 07:29:01;;;;;;;;;;;2.80;95.30;;;;;;5094475;28;19935;-72
2022/12/10 07:31:26;;;;;;;;;;;2.80;95.30;;;;;;5103697;28;19981;-72
2022/12/10 07:33:53;;;;;;;;;;;2.80;95.30;;;;;;5109533;28;20250;-71
2022/12/10 07:36:19;;;;;;;;;;;2.80;95.30;;;;;;5109459;28;19930;-72
2022/12/10 07:38:45;;;;;;;;;;;2.70;95.30;;;;;;5090928;28;20458;-72
2022/12/10 07:41:12;;;;;;;;;;;2.70;95.30;;;;;;5108995;28;20015;-72
2022/12/10 07:43:38;;;;;;;;;;;2.70;95.30;;;;;;5085478;28;20364;-72
2022/12/10 07:46:07;;;;;;;;;;;2.70;95.30;;;;;;5090192;28;19920;-72
2022/12/10 07:48:33;;;;;;;;;;;2.70;95.30;;;;;;5089092;28;20062;-72
2022/12/10 07:50:59;;;;;;;;;;;2.70;95.30;;;;;;5088629;28;20675;-72
2022/12/10 07:53:24;;;;;;;;;;;2.70;95.20;;;;;;5088075;28;19916;-72
2022/12/10 07:55:50;;;;;;;;;;;2.70;95.20;;;;;;5089007;28;19952;-72
2022/12/10 07:58:15;;;;;;;;;;;2.70;95.20;;;;;;5088908;28;19923;-72
2022/12/10 08:00:41;;;;;;;;;;;2.60;95.20;;;;;;5097742;28;19919;-72
2022/12/10 08:03:06;;;;;;;;;;;2.60;95.20;;;;;;5105933;28;19956;-72
2022/12/10 08:05:32;;;;;;;;;;;2.60;95.20;;;;;;5108868;28;20493;-72
2022/12/10 08:07:57;;;;;;;;;;;2.60;95.20;;;;;;5108874;28;20265;-72
2022/12/10 08:10:23;;;;;;;;;;;2.60;95.20;;;;;;5090071;28;19919;-72
2022/12/10 08:12:48;;;;;;;;;;;2.60;95.20;;;;;;5108876;28;20673;-72
2022/12/10 08:15:14;;;;;;;;;;;2.60;95.20;;;;;;5088684;28;19916;-72
2022/12/10 08:17:39;;;;;;;;;;;2.60;95.20;;;;;;5088370;28;20711;-72
2022/12/10 08:20:05;;;;;;;;;;;2.60;95.20;;;;;;5087298;28;19999;-72
2022/12/10 08:22:30;;;;;;;;;;;2.60;95.20;;;;;;5087361;28;19912;-72
2022/12/10 08:24:56;;;;;;;;;;;2.60;95.20;;;;;;5085994;28;19919;-72
2022/12/10 08:27:21;;;;;;;;;;;2.60;95.20;;;;;;5087509;28;19912;-72
2022/12/10 08:29:47;;;;;;;;;;;2.50;95.20;;;;;;5087152;28;20614;-72
2022/12/10 08:32:12;;;;;;;;;;;2.60;95.20;;;;;;5097593;28;19918;-72
2022/12/10 08:34:38;;;;;;;;;;;2.60;95.20;;;;;;5093277;28;19916;-72
2022/12/10 08:37:03;;;;;;;;;;;2.60;95.20;;;;;;5087840;28;19920;-72
2022/12/10 08:39:29;;;;;;;;;;;2.50;95.10;;;;;;5087652;28;19918;-72
2022/12/10 08:41:54;;;;;;;;;;;2.50;95.20;;;;;;5087619;28;20354;-72
2022/12/10 08:44:20;;;;;;;;;;;2.60;95.20;;;;;;5087481;28;20345;-73
2022/12/10 08:46:45;;;;;;;;;;;2.60;95.20;;;;;;5087890;28;19919;-72
2022/12/10 08:49:11;;;;;;;;;;;2.60;95.20;;;;;;5087466;28;19909;-72
2022/12/10 08:51:36;;;;;;;;;;;2.60;95.20;;;;;;5089556;28;19908;-72
2022/12/10 08:54:02;;;;;;;;;;;2.50;95.10;;;;;;5107267;28;19912;-71
2022/12/10 08:56:27;;;;;;;;;;;2.60;95.10;;;;;;5107220;28;20011;-72
2022/12/10 08:58:55;;;;;;;;;;;2.60;95.10;;;;;;5106484;28;19912;-72
2022/12/10 09:01:22;;;;;;;;;;;2.60;95.10;;;;;;5082838;28;19916;-72
2022/12/10 09:03:47;;;;;;;;;;;2.60;95.10;;;;;;5108064;28;19908;-74
2022/12/10 09:06:14;;;;;;;;;;;2.60;95.10;;;;;;5107372;28;19923;-74
2022/12/10 09:08:40;;;;;;;;;;;2.60;95.10;;;;;;5107848;28;19937;-74
2022/12/10 09:11:10;;;;;;;;;;;2.70;95.10;;;;;;5107368;28;19920;-74
2022/12/10 09:13:35;;;;;;;;;;;2.70;95.10;;;;;;5096934;28;19931;-74
2022/12/10 09:16:01;;;;;;;;;;;2.70;95.20;;;;;;5048421;28;20458;-74
2022/12/10 09:18:26;;;;;;;;;;;2.70;95.10;;;;;;5086009;28;20284;-74
2022/12/10 09:20:52;;;;;;;;;;;2.70;95.10;;;;;;5086978;28;19912;-74
2022/12/10 09:23:17;;;;;;;;;;;2.70;95.10;;;;;;5098313;28;19922;-74
2022/12/10 09:25:43;;;;;;;;;;;2.70;95.10;;;;;;5091783;28;20007;-74
2022/12/10 09:28:08;;;;;;;;;;;2.70;95.00;;;;;;5065792;28;19918;-74
2022/12/10 09:30:34;;;;;;;;;;;2.70;95.00;;;;;;5080346;28;19965;-75
2022/12/10 09:32:59;;;;;;;;;;;2.80;95.00;;;;;;5070662;28;19951;-74
2022/12/10 09:35:25;;;;;;;;;;;2.80;95.00;;;;;;5087041;28;19912;-72
2022/12/10 09:37:50;;;;;;;;;;;2.80;95.00;;;;;;5068598;28;19962;-72
2022/12/10 09:40:16;;;;;;;;;;;2.80;95.00;;;;;;5099394;28;20291;-72
2022/12/10 09:42:46;;;;;;;;;;;2.80;95.00;;;;;;5092576;28;19912;-72
2022/12/10 09:45:24;;;;;;;;;;;2.80;94.90;;;;;;5086501;28;19919;-72
2022/12/10 09:47:56;;;;;;;;;;;2.80;94.90;;;;;;5086648;28;20059;-72
2022/12/10 09:50:25;;;;;;;;;;;2.90;95.00;;;;;;5059235;28;20369;-72
2022/12/10 09:52:52;;;;;;;;;;;2.90;95.00;;;;;;5067057;28;19916;-72
2022/12/10 09:55:25;;;;;;;;;;;2.90;95.00;;;;;;5066224;28;19962;-72
2022/12/10 09:57:51;;;;;;;;;;;2.90;95.00;;;;;;5086356;28;19927;-72
2022/12/10 10:00:17;;;;;;;;;;;2.90;95.00;;;;;;5086210;28;19916;-72
2022/12/10 10:02:43;;;;;;;;;;;2.90;94.90;;;;;;5100340;28;19911;-72
2022/12/10 10:05:08;;;;;;;;;;;2.90;94.90;;;;;;5107305;28;19912;-72
2022/12/10 10:07:36;;;;;;;;;;;3.00;94.90;;;;;;5107354;28;19942;-72
2022/12/10 10:10:06;;;;;;;;;;;3.00;94.90;;;;;;5106906;28;19912;-72
2022/12/10 10:12:33;;;;;;;;;;;3.00;94.90;;;;;;5087731;28;19911;-72
2022/12/10 10:15:01;;;;;;;;;;;3.00;94.90;;;;;;5073049;28;19951;-72
2022/12/10 10:17:33;;;;;;;;;;;3.00;94.90;;;;;;5068454;28;19912;-72
2022/12/10 10:19:58;;;;;;;;;;;3.00;94.90;;;;;;5070421;28;19913;-72
2022/12/10 10:22:26;;;;;;;;;;;3.00;94.90;;;;;;5070548;28;19923;-72
2022/12/10 10:24:51;;;;;;;;;;;3.00;94.90;;;;;;5076978;28;19915;-72
2022/12/10 10:27:21;;;;;;;;;;;3.00;94.90;;;;;;5090444;28;19915;-72
2022/12/10 10:29:49;;;;;;;;;;;3.00;94.90;;;;;;5101434;28;19985;-72
2022/12/10 10:32:20;;;;;;;;;;;3.00;94.90;;;;;;5104655;28;20442;-72
2022/12/10 10:34:46;;;;;;;;;;;3.10;94.90;;;;;;5110623;28;19918;-72
2022/12/10 10:37:16;;;;;;;;;;;3.10;94.90;;;;;;5110795;28;19912;-72
2022/12/10 10:39:46;;;;;;;;;;;3.10;94.90;;;;;;5101850;28;19912;-72
2022/12/10 10:42:20;;;;;;;;;;;3.10;94.90;;;;;;5090179;28;19908;-72
2022/12/10 10:44:45;;;;;;;;;;;3.10;94.90;;;;;;5090437;28;20321;-72
2022/12/10 10:47:28;;;;;;;;;;;3.10;94.90;;;;;;5091521;28;19923;-72
2022/12/10 10:49:54;;;;;;;;;;;3.10;94.90;;;;;;5089522;28;19916;-72
2022/12/10 10:52:19;;;;;;;;;;;3.10;94.90;;;;;;5089777;28;19912;-72
2022/12/10 10:54:46;;;;;;;;;;;3.10;94.90;;;;;;5089737;28;19919;-72
2022/12/10 10:57:15;;;;;;;;;;;3.10;94.90;;;;;;5088512;28;19919;-72
2022/12/10 10:59:41;;;;;;;;;;;3.10;94.90;;;;;;5071259;28;19939;-72
2022/12/10 11:02:25;;;;;;;;;;;3.10;94.90;;;;;;5094491;28;20276;-72
2022/12/10 11:04:52;;;;;;;;;;;3.10;94.90;;;;;;5099701;28;19927;-72
2022/12/10 11:07:20;;;;;;;;;;;3.10;94.90;;;;;;5109246;28;19919;-72
2022/12/10 11:09:47;;;;;;;;;;;3.10;94.90;;;;;;5109350;28;19912;-72
2022/12/10 11:12:30;;;;;;;;;;;3.10;94.90;;;;;;5109968;28;19907;-72
2022/12/10 11:14:56;;;;;;;;;;;3.20;94.90;;;;;;5093367;28;20015;-72
2022/12/10 11:17:25;;;;;;;;;;;3.10;94.90;;;;;;5071558;28;19927;-72
2022/12/10 11:19:59;;;;;;;;;;;3.20;94.90;;;;;;5090450;28;19918;-73
2022/12/10 11:22:25;;;;;;;;;;;3.10;94.80;;;;;;5084932;28;20435;-72
2022/12/10 11:24:51;;;;;;;;;;;3.20;94.80;;;;;;5095640;28;19908;-72
2022/12/10 11:27:35;;;;;;;;;;;3.20;94.90;;;;;;5071500;28;20522;-72
2022/12/10 11:30:00;;;;;;;;;;;3.20;94.90;;;;;;5082452;28;20509;-72
2022/12/10 11:32:44;;;;;;;;;;;3.20;94.90;;;;;;5090106;28;20006;-73
2022/12/10 11:35:10;;;;;;;;;;;3.20;94.90;;;;;;5085402;28;20793;-73
2022/12/10 11:37:48;;;;;;;;;;;3.20;94.90;;;;;;5088026;28;19920;-72
2022/12/10 11:40:29;;;;;;;;;;;3.20;94.90;;;;;;5087109;28;19912;-72
2022/12/10 11:43:07;;;;;;;;;;;3.20;94.90;;;;;;5088643;28;19916;-72
2022/12/10 11:45:33;;;;;;;;;;;3.20;94.90;;;;;;5066290;28;19912;-72
2022/12/10 11:48:11;;;;;;;;;;;3.20;94.90;;;;;;5083784;28;19980;-72
2022/12/10 11:50:40;;;;;;;;;;;3.20;95.10;;;;;;5087279;28;19916;-73
2022/12/10 11:53:35;;;;;;;;;;;3.20;94.90;;;;;;5101156;28;19915;-72
2022/12/10 11:56:19;;;;;;;;;;;3.20;94.90;;;;;;5086358;28;19912;-72
2022/12/10 11:59:05;;;;;;;;;;;3.20;94.90;;;;;;5109392;28;20053;-72
2022/12/10 12:01:41;;;;;;;;;;;3.20;94.90;;;;;;5103311;28;19912;-72
2022/12/10 12:04:22;;;;;;;;;;;3.20;94.90;;;;;;5103988;28;19908;-72
2022/12/10 12:06:55;;;;;;;;;;;3.20;94.80;;;;;;5088712;28;19912;-72
2022/12/10 12:09:20;;;;;;;;;;;3.20;94.90;;;;;;5098768;28;19915;-72
2022/12/10 12:11:49;;;;;;;;;;;3.30;94.90;;;;;;5109151;28;19912;-72
2022/12/10 12:14:26;;;;;;;;;;;3.30;94.80;;;;;;5087350;28;20019;-72
2022/12/10 12:16:58;;;;;;;;;;;3.30;94.90;;;;;;5068115;28;20007;-72
2022/12/10 12:19:37;;;;;;;;;;;3.30;94.90;;;;;;5067991;28;19916;-72
2022/12/10 12:22:07;;;;;;;;;;;3.30;94.90;;;;;;5068232;28;19912;-72
2022/12/10 12:24:37;;;;;;;;;;;3.30;94.80;;;;;;5072102;28;19912;-72
2022/12/10 12:27:23;;;;;;;;;;;3.30;94.90;;;;;;5106645;28;20277;-72
2022/12/10 12:29:54;;;;;;;;;;;3.30;94.80;;;;;;5107935;28;19951;-73
2022/12/10 12:32:24;;;;;;;;;;;3.30;94.80;;;;;;5084375;28;19960;-72
2022/12/10 12:35:08;;;;;;;;;;;3.30;94.80;;;;;;5108624;28;19957;-73
2022/12/10 12:37:40;;;;;;;;;;;3.30;94.80;;;;;;5108281;28;19930;-72
2022/12/10 12:40:15;;;;;;;;;;;3.30;94.80;;;;;;5106516;28;20341;-72
2022/12/10 12:42:44;;;;;;;;;;;3.30;94.80;;;;;;5082879;28;19916;-72
2022/12/10 12:45:10;;;;;;;;;;;3.40;94.80;;;;;;5069536;28;19916;-72
2022/12/10 12:47:38;;;;;;;;;;;3.30;94.80;;;;;;5087840;28;19927;-72
2022/12/10 12:50:05;;;;;;;;;;;3.40;94.80;;;;;;5069344;28;19912;-72
2022/12/10 12:52:37;;;;;;;;;;;3.40;94.80;;;;;;5087956;28;20525;-72
2022/12/10 12:55:13;;;;;;;;;;;3.30;94.80;;;;;;5088658;28;19908;-72
2022/12/10 12:57:43;;;;;;;;;;;3.40;94.80;;;;;;5107987;28;19976;-72
2022/12/10 13:00:21;;;;;;;;;;;3.40;94.80;;;;;;5108001;28;20028;-72
2022/12/10 13:03:00;;;;;;;;;;;3.40;94.80;;;;;;5102289;28;19990;-72
2022/12/10 13:05:30;;;;;;;;;;;3.40;94.80;;;;;;5108052;28;19968;-72
2022/12/10 13:08:14;;;;;;;;;;;3.40;94.70;;;;;;5098789;28;20031;-72
2022/12/10 13:10:58;;;;;;;;;;;3.40;94.70;;;;;;5085901;28;19916;-72
2022/12/10 13:13:37;;;;;;;;;;;3.40;94.70;;;;;;5087222;28;19920;-72
2022/12/10 13:16:22;;;;;;;;;;;3.40;94.80;;;;;;5087342;28;19954;-72
2022/12/10 13:18:47;;;;;;;;;;;3.40;94.70;;;;;;5087499;28;19919;-72
2022/12/10 13:21:29;;;;;;;;;;;3.40;94.70;;;;;;5085842;28;20380;-72
2022/12/10 13:24:05;;;;;;;;;;;3.40;94.70;;;;;;5087518;28;19969;-72
2022/12/10 13:26:31;;;;;;;;;;;3.40;94.70;;;;;;5089963;28;20040;-73
2022/12/10 13:29:12;;;;;;;;;;;3.40;94.70;;;;;;5101473;28;19953;-72
2022/12/10 13:31:38;;;;;;;;;;;3.40;94.60;;;;;;5089873;28;19907;-72
2022/12/10 13:34:08;;;;;;;;;;;3.40;94.70;;;;;;5106779;28;20669;-73
2022/12/10 13:36:33;;;;;;;;;;;3.40;94.60;;;;;;5107462;28;20402;-72
2022/12/10 13:39:02;;;;;;;;;;;3.40;94.60;;;;;;5102575;28;19924;-73
2022/12/10 13:44:30;;;;;;;;;;;3.40;94.60;;;;;;5087697;28;19923;-72
2022/12/10 13:46:58;;;;;;;;;;;3.40;94.60;;;;;;5084202;28;20023;-72
2022/12/10 13:49:29;;;;;;;;;;;3.40;94.70;;;;;;5086570;28;19916;-72
2022/12/10 13:52:00;;;;;;;;;;;3.50;94.70;;;;;;5083262;28;19916;-72
2022/12/10 13:54:38;;;;;;;;;;;3.40;94.70;;;;;;5087244;28;19912;-72
2022/12/10 13:57:03;;;;;;;;;;;3.40;94.70;;;;;;5086550;28;20019;-72
2022/12/10 13:59:29;;;;;;;;;;;3.40;94.70;;;;;;5095079;28;20003;-72
2022/12/10 14:02:00;;;;;;;;;;;3.40;94.70;;;;;;5098626;28;20387;-72
2022/12/10 14:04:29;;;;;;;;;;;3.40;94.70;;;;;;5086193;28;19919;-72
2022/12/10 14:06:54;;;;;;;;;;;3.40;94.70;;;;;;5068260;28;20414;-72
2022/12/10 14:09:34;;;;;;;;;;;3.40;94.70;;;;;;5086022;28;19912;-72
2022/12/10 14:12:05;;;;;;;;;;;3.40;94.70;;;;;;5065804;28;20314;-72
2022/12/10 14:14:37;;;;;;;;;;;3.40;94.70;;;;;;5086302;28;19920;-72
2022/12/10 14:17:04;;;;;;;;;;;3.40;94.70;;;;;;5087553;28;19916;-73
2022/12/10 14:19:30;;;;;;;;;;;3.40;94.70;;;;;;5088306;28;19938;-72
2022/12/10 14:21:55;;;;;;;;;;;3.40;94.70;;;;;;5067811;28;20361;-72
2022/12/10 14:24:36;;;;;;;;;;;3.40;94.70;;;;;;5086061;28;19916;-72
2022/12/10 14:27:14;;;;;;;;;;;3.40;94.70;;;;;;5083609;28;19912;-72
2022/12/10 14:29:46;;;;;;;;;;;3.40;94.70;;;;;;5068272;28;19912;-72
2022/12/10 14:32:17;;;;;;;;;;;3.40;94.70;;;;;;5086760;28;19951;-72
2022/12/10 14:34:43;;;;;;;;;;;3.40;94.70;;;;;;5086565;28;20311;-72
2022/12/10 14:37:11;;;;;;;;;;;3.40;94.60;;;;;;5086214;28;19969;-73
2022/12/10 14:39:38;;;;;;;;;;;3.40;94.60;;;;;;5078598;28;19912;-72
2022/12/10 14:42:05;;;;;;;;;;;3.40;94.60;;;;;;5078986;28;19923;-72
2022/12/10 14:44:31;;;;;;;;;;;3.40;94.70;;;;;;5071468;28;19923;-72
2022/12/10 14:47:06;;;;;;;;;;;3.40;94.70;;;;;;5068482;28;19963;-72
2022/12/10 14:49:38;;;;;;;;;;;3.40;94.70;;;;;;5081599;28;19913;-72